createdAt,value
2019-01-26T00:00:18.974Z,96.80
2019-01-26T00:02:45.632Z,96.80
2019-01-26T00:05:12.275Z,96.90
2019-01-26T00:07:38.902Z,97.20
2019-01-26T00:10:07.471Z,97.40
2019-01-26T00:12:34.091Z,96.80
2019-01-26T00:15:00.772Z,97.00
2019-01-26T00:17:27.401Z,96.80
2019-01-26T00:19:54.049Z,97.00
2019-01-26T00:22:20.709Z,97.00
2019-01-26T00:24:47.401Z,96.70
2019-01-26T00:27:14.014Z,96.80
2019-01-26T00:29:40.707Z,96.70
2019-01-26T00:32:07.331Z,96.80
2019-01-26T00:34:34.006Z,96.80
2019-01-26T00:37:00.677Z,96.70
2019-01-26T00:39:27.343Z,96.60
2019-01-26T00:41:54.039Z,96.60
2019-01-26T00:44:20.676Z,96.80
2019-01-26T00:46:47.351Z,96.80
2019-01-26T00:49:13.987Z,96.90
2019-01-26T00:51:40.658Z,96.60
2019-01-26T00:54:07.305Z,96.70
2019-01-26T00:56:33.976Z,96.80
2019-01-26T00:59:00.667Z,96.70
2019-01-26T01:01:27.472Z,96.70
2019-01-26T01:03:54.177Z,97.00
2019-01-26T01:06:20.821Z,97.00
2019-01-26T01:08:47.463Z,96.80
2019-01-26T01:11:14.255Z,97.00
2019-01-26T01:13:40.913Z,96.60
2019-01-26T01:16:07.640Z,96.80
2019-01-26T01:18:34.305Z,96.80
2019-01-26T01:21:02.871Z,96.70
2019-01-26T01:23:30.500Z,96.90
2019-01-26T01:25:57.272Z,96.60
2019-01-26T01:28:23.908Z,96.70
2019-01-26T01:30:50.584Z,96.60
2019-01-26T01:33:17.264Z,96.70
2019-01-26T01:35:43.928Z,96.80
2019-01-26T01:38:10.574Z,97.10
2019-01-26T01:40:37.281Z,97.00
2019-01-26T01:43:03.926Z,97.50
2019-01-26T01:45:30.592Z,97.10
2019-01-26T01:47:57.224Z,96.80
2019-01-26T01:50:23.895Z,97.10
2019-01-26T01:52:50.517Z,97.20
2019-01-26T01:55:17.132Z,97.10
2019-01-26T01:57:43.826Z,96.90
2019-01-26T02:00:16.391Z,97.30
2019-01-26T02:02:43.094Z,97.30
2019-01-26T02:08:05.063Z,97.50
2019-01-26T02:10:31.809Z,97.50
2019-01-26T02:12:58.463Z,97.30
2019-01-26T02:15:25.115Z,97.50
2019-01-26T02:17:51.898Z,97.40
2019-01-26T02:20:20.640Z,97.20
2019-01-26T02:22:47.311Z,97.20
2019-01-26T02:25:13.958Z,97.20
2019-01-26T02:27:40.677Z,97.40
2019-01-26T02:30:11.049Z,97.40
2019-01-26T02:32:37.692Z,97.60
2019-01-26T02:35:05.562Z,97.70
2019-01-26T02:37:32.184Z,98.00
2019-01-26T02:39:58.838Z,97.20
2019-01-26T02:42:25.493Z,97.20
2019-01-26T02:44:52.197Z,97.50
2019-01-26T02:47:18.848Z,97.60
2019-01-26T02:49:45.471Z,97.30
2019-01-26T02:52:12.144Z,97.00
2019-01-26T02:54:38.804Z,97.10
2019-01-26T02:57:05.416Z,97.50
2019-01-26T02:59:32.072Z,97.20
2019-01-26T03:01:58.816Z,97.00
2019-01-26T03:04:25.437Z,97.10
2019-01-26T03:06:52.130Z,97.10
2019-01-26T03:09:18.792Z,97.50
2019-01-26T03:11:45.449Z,97.70
2019-01-26T03:14:12.062Z,97.60
2019-01-26T03:16:38.733Z,97.50
2019-01-26T03:19:05.364Z,97.60
2019-01-26T03:21:32.019Z,97.50
2019-01-26T03:23:58.636Z,97.80
2019-01-26T03:26:25.279Z,97.90
2019-01-26T03:28:51.932Z,97.80
2019-01-26T03:31:18.582Z,97.90
2019-01-26T03:33:45.244Z,98.10
2019-01-26T03:36:11.892Z,98.10
2019-01-26T03:38:38.556Z,98.10
2019-01-26T03:41:05.281Z,98.10
2019-01-26T03:43:32.100Z,98.20
2019-01-26T03:45:58.877Z,98.30
2019-01-26T03:48:25.596Z,98.50
2019-01-26T03:50:52.235Z,98.30
2019-01-26T03:53:18.874Z,98.20
2019-01-26T03:55:45.494Z,98.10
2019-01-26T03:58:13.097Z,98.60
2019-01-26T04:00:39.928Z,98.50
2019-01-26T04:03:06.578Z,98.20
2019-01-26T04:05:33.228Z,98.20
2019-01-26T04:07:59.916Z,97.80
2019-01-26T04:10:26.537Z,97.90
2019-01-26T04:12:53.173Z,97.80
2019-01-26T04:15:19.844Z,98.30
2019-01-26T04:17:46.560Z,98.30
2019-01-26T04:20:15.790Z,98.40
2019-01-26T04:22:42.414Z,98.20
2019-01-26T04:25:09.641Z,98.10
2019-01-26T04:27:36.298Z,98.20
2019-01-26T04:30:06.137Z,98.10
2019-01-26T04:32:32.850Z,98.40
2019-01-26T04:34:59.498Z,98.30
2019-01-26T04:37:26.638Z,98.00
2019-01-26T04:39:53.344Z,97.90
2019-01-26T04:42:20.099Z,98.10
2019-01-26T04:44:46.876Z,98.10
2019-01-26T04:47:13.499Z,98.30
2019-01-26T04:49:40.115Z,98.70
2019-01-26T04:52:06.792Z,98.80
2019-01-26T04:54:33.472Z,98.40
2019-01-26T04:57:00.093Z,98.60
2019-01-26T04:59:26.740Z,98.70
2019-01-26T05:01:53.405Z,98.80
2019-01-26T05:04:20.050Z,98.60
2019-01-26T05:06:46.840Z,98.30
2019-01-26T05:09:13.617Z,98.20
2019-01-26T05:11:40.267Z,98.60
2019-01-26T05:14:06.898Z,98.70
2019-01-26T05:16:33.535Z,98.50
2019-01-26T05:19:00.200Z,98.10
2019-01-26T05:21:26.843Z,98.40
2019-01-26T05:23:53.651Z,98.10
2019-01-26T05:26:20.270Z,98.10
2019-01-26T05:28:46.986Z,98.60
2019-01-26T05:31:13.663Z,98.20
2019-01-26T05:33:40.243Z,98.20
2019-01-26T05:36:06.924Z,98.20
2019-01-26T05:38:33.552Z,98.10
2019-01-26T05:41:00.279Z,97.80
2019-01-26T05:43:26.896Z,98.50
2019-01-26T05:45:53.759Z,99.10
2019-01-26T05:48:20.494Z,99.10
2019-01-26T05:50:47.364Z,99.30
2019-01-26T05:53:14.107Z,99.10
2019-01-26T05:55:40.762Z,99.10
2019-01-26T05:58:07.385Z,99.30
2019-01-26T06:00:34.219Z,99.00
2019-01-26T06:03:00.990Z,99.10
2019-01-26T06:05:27.615Z,99.40
2019-01-26T06:07:54.299Z,99.50
2019-01-26T06:10:20.963Z,99.10
2019-01-26T06:12:47.659Z,98.90
2019-01-26T06:15:14.676Z,99.20
2019-01-26T06:17:41.433Z,98.80
2019-01-26T06:20:11.004Z,98.70
2019-01-26T06:22:37.625Z,98.90
2019-01-26T06:25:07.703Z,99.10
2019-01-26T06:27:34.348Z,98.90
2019-01-26T06:30:00.983Z,98.90
2019-01-26T06:32:27.689Z,98.30
2019-01-26T06:34:54.356Z,98.50
2019-01-26T06:37:21.034Z,98.80
2019-01-26T06:39:47.638Z,98.70
2019-01-26T06:42:14.288Z,98.80
2019-01-26T06:44:40.963Z,98.80
2019-01-26T06:47:07.616Z,98.90
2019-01-26T06:49:34.249Z,98.60
2019-01-26T06:52:00.863Z,98.90
2019-01-26T06:54:27.516Z,98.70
2019-01-26T06:56:54.153Z,98.70
2019-01-26T06:59:20.932Z,99.00
2019-01-26T07:01:47.548Z,99.20
2019-01-26T07:04:16.125Z,98.90
2019-01-26T07:06:44.684Z,99.00
2019-01-26T07:09:11.347Z,99.10
2019-01-26T07:11:38.064Z,99.00
2019-01-26T07:14:04.682Z,99.00
2019-01-26T07:16:31.344Z,99.00
2019-01-26T07:18:57.955Z,98.90
2019-01-26T07:21:24.612Z,99.20
2019-01-26T07:23:51.256Z,99.00
2019-01-26T07:26:17.923Z,99.00
2019-01-26T07:28:44.545Z,98.70
2019-01-26T07:31:11.204Z,98.70
2019-01-26T07:33:37.824Z,98.80
2019-01-26T07:36:04.479Z,98.60
2019-01-26T07:38:31.148Z,98.70
2019-01-26T07:40:57.787Z,98.90
2019-01-26T07:43:24.490Z,98.80
2019-01-26T07:45:51.137Z,98.80
2019-01-26T07:48:19.920Z,98.70
2019-01-26T07:50:46.548Z,98.70
2019-01-26T07:53:13.412Z,98.80
2019-01-26T07:55:40.096Z,98.80
2019-01-26T07:58:08.090Z,98.70
2019-01-26T08:00:34.962Z,98.60
2019-01-26T08:03:01.694Z,98.60
2019-01-26T08:05:28.445Z,98.70
2019-01-26T08:07:55.085Z,98.90
2019-01-26T08:10:23.869Z,98.90
2019-01-26T08:12:50.797Z,98.90
2019-01-26T08:15:20.169Z,98.70
2019-01-26T08:17:46.792Z,98.80
2019-01-26T08:20:15.864Z,99.00
2019-01-26T08:22:42.501Z,99.00
2019-01-26T08:25:09.306Z,99.10
2019-01-26T08:27:35.930Z,99.10
2019-01-26T08:30:05.393Z,99.10
2019-01-26T08:32:32.033Z,99.10
2019-01-26T08:34:58.655Z,99.10
2019-01-26T08:37:25.319Z,99.20
2019-01-26T08:39:51.938Z,99.30
2019-01-26T08:42:18.629Z,99.40
2019-01-26T08:44:45.253Z,99.50
2019-01-26T08:47:11.932Z,99.50
2019-01-26T08:49:38.562Z,99.40
2019-01-26T08:52:05.285Z,99.30
2019-01-26T08:54:31.946Z,99.40
2019-01-26T08:56:58.565Z,99.40
2019-01-26T08:59:25.245Z,99.50
2019-01-26T09:01:53.792Z,99.40
2019-01-26T09:04:22.351Z,99.60
2019-01-26T09:06:48.982Z,99.40
2019-01-26T09:09:15.641Z,99.60
2019-01-26T09:11:42.302Z,99.70
2019-01-26T09:14:08.959Z,99.70
2019-01-26T09:16:35.584Z,99.70
2019-01-26T09:19:02.248Z,99.80
2019-01-26T09:21:29.047Z,99.50
2019-01-26T09:23:55.709Z,99.50
2019-01-26T09:26:22.434Z,99.70
2019-01-26T09:28:49.065Z,99.90
2019-01-26T09:31:15.700Z,99.60
2019-01-26T09:33:42.364Z,99.60
2019-01-26T09:36:09.021Z,99.70
2019-01-26T09:38:37.586Z,99.70
2019-01-26T09:41:04.265Z,99.80
2019-01-26T09:43:30.917Z,99.80
2019-01-26T09:45:57.641Z,99.80
2019-01-26T09:48:24.297Z,99.90
2019-01-26T09:50:50.972Z,99.90
2019-01-26T09:53:17.592Z,99.90
2019-01-26T09:55:44.221Z,99.90
2019-01-26T09:58:10.994Z,99.90
2019-01-26T10:00:37.732Z,99.90
2019-01-26T10:03:04.681Z,99.90
2019-01-26T10:05:31.312Z,99.90
2019-01-26T10:07:57.996Z,99.90
2019-01-26T10:10:24.745Z,99.80
2019-01-26T10:12:51.404Z,99.90
2019-01-26T10:15:20.506Z,99.90
2019-01-26T10:17:47.468Z,99.90
2019-01-26T10:20:17.685Z,99.90
2019-01-26T10:22:44.447Z,99.90
2019-01-26T10:25:12.964Z,99.90
2019-01-26T10:27:39.635Z,99.90
2019-01-26T10:30:13.017Z,99.90
2019-01-26T10:32:39.690Z,99.90
2019-01-26T10:35:06.409Z,99.90
2019-01-26T10:37:33.111Z,99.90
2019-01-26T10:40:00.265Z,99.90
2019-01-26T10:42:27.058Z,99.90
2019-01-26T10:44:54.060Z,99.90
2019-01-26T10:47:21.073Z,99.90
2019-01-26T10:49:47.777Z,99.90
2019-01-26T10:52:14.462Z,99.90
2019-01-26T10:54:41.089Z,99.90
2019-01-26T10:57:07.771Z,99.90
2019-01-26T10:59:34.405Z,99.90
2019-01-26T11:02:01.083Z,99.90
2019-01-26T11:04:27.738Z,99.90
2019-01-26T11:06:54.478Z,99.90
2019-01-26T11:09:21.159Z,99.90
2019-01-26T11:11:47.828Z,99.90
2019-01-26T11:14:14.485Z,99.90
2019-01-26T11:16:41.417Z,99.90
2019-01-26T11:19:08.227Z,99.90
2019-01-26T11:21:35.019Z,99.90
2019-01-26T11:24:01.664Z,99.90
2019-01-26T11:26:28.341Z,99.90
2019-01-26T11:28:54.977Z,99.90
2019-01-26T11:31:21.784Z,99.90
2019-01-26T11:33:48.469Z,99.90
2019-01-26T11:36:15.161Z,99.90
2019-01-26T11:38:41.814Z,99.90
2019-01-26T11:41:08.573Z,99.90
2019-01-26T11:43:36.010Z,99.90
2019-01-26T11:46:05.137Z,99.90
2019-01-26T11:48:34.158Z,99.90
2019-01-26T11:51:03.662Z,99.90
2019-01-26T11:53:31.641Z,99.90
2019-01-26T11:56:18.693Z,99.90
2019-01-26T11:58:46.244Z,99.90
2019-01-26T12:01:18.195Z,99.90
2019-01-26T12:03:47.283Z,99.90
2019-01-26T12:06:17.642Z,99.90
2019-01-26T12:08:44.889Z,99.90
2019-01-26T12:11:12.803Z,99.90
2019-01-26T12:13:40.367Z,99.90
2019-01-26T12:16:09.303Z,99.90
2019-01-26T12:18:35.909Z,99.90
2019-01-26T12:21:02.636Z,99.90
2019-01-26T12:23:29.441Z,99.90
2019-01-26T12:25:56.060Z,99.90
2019-01-26T12:28:22.794Z,99.90
2019-01-26T12:30:49.498Z,99.90
2019-01-26T12:33:16.230Z,99.90
2019-01-26T12:35:44.227Z,99.90
2019-01-26T12:38:11.028Z,99.90
2019-01-26T12:40:37.653Z,99.90
2019-01-26T12:43:04.369Z,99.90
2019-01-26T12:45:31.012Z,99.90
2019-01-26T12:47:57.636Z,99.90
2019-01-26T12:50:24.402Z,99.40
2019-01-26T12:52:51.017Z,99.30
2019-01-26T12:55:19.783Z,99.50
2019-01-26T12:57:46.459Z,99.20
2019-01-26T13:00:23.621Z,99.00
2019-01-26T13:02:50.409Z,99.00
2019-01-26T13:05:17.031Z,98.60
2019-01-26T13:07:43.705Z,98.90
2019-01-26T13:10:32.436Z,98.90
2019-01-26T13:12:59.168Z,99.00
2019-01-26T13:15:25.821Z,99.10
2019-01-26T13:17:52.444Z,99.30
2019-01-26T13:20:19.225Z,98.90
2019-01-26T13:22:45.876Z,98.60
2019-01-26T13:25:15.340Z,98.80
2019-01-26T13:27:41.985Z,99.10
2019-01-26T13:30:12.236Z,98.20
2019-01-26T13:32:38.929Z,97.50
2019-01-26T13:35:06.674Z,97.10
2019-01-26T13:37:33.330Z,97.00
2019-01-26T13:40:00.008Z,97.00
2019-01-26T13:42:26.747Z,97.20
2019-01-26T13:44:53.407Z,97.10
2019-01-26T13:47:20.080Z,97.90
2019-01-26T13:49:46.699Z,96.90
2019-01-26T13:52:13.495Z,97.10
2019-01-26T13:54:40.142Z,97.30
2019-01-26T13:57:06.795Z,97.60
2019-01-26T13:59:33.444Z,97.00
2019-01-26T14:02:00.095Z,97.30
2019-01-26T14:04:26.962Z,97.20
2019-01-26T14:06:53.577Z,97.70
2019-01-26T14:09:20.233Z,97.50
2019-01-26T14:11:46.893Z,97.50
2019-01-26T14:14:13.554Z,97.40
2019-01-26T14:16:40.205Z,97.50
2019-01-26T14:19:06.863Z,97.10
2019-01-26T14:21:33.480Z,97.10
2019-01-26T14:24:00.132Z,97.20
2019-01-26T14:26:26.781Z,96.80
2019-01-26T14:28:53.408Z,96.70
2019-01-26T14:31:20.096Z,96.60
2019-01-26T14:33:46.713Z,97.10
2019-01-26T14:36:13.396Z,97.30
2019-01-26T14:38:40.016Z,97.70
2019-01-26T14:41:06.734Z,97.80
2019-01-26T14:43:33.502Z,97.90
2019-01-26T14:46:00.161Z,98.60
2019-01-26T14:48:26.784Z,98.50
2019-01-26T14:50:53.457Z,98.50
2019-01-26T14:53:20.095Z,98.30
2019-01-26T14:55:46.737Z,98.10
2019-01-26T14:58:13.396Z,97.30
2019-01-26T15:00:40.019Z,96.90
2019-01-26T15:03:06.719Z,96.80
2019-01-26T15:05:33.357Z,96.60
2019-01-26T15:08:00.022Z,97.00
2019-01-26T15:10:27.065Z,97.00
2019-01-26T15:12:53.870Z,97.50
2019-01-26T15:15:20.493Z,97.40
2019-01-26T15:17:47.113Z,97.60
2019-01-26T15:20:20.089Z,97.60
2019-01-26T15:22:46.720Z,97.50
2019-01-26T15:25:13.406Z,97.80
2019-01-26T15:27:40.041Z,97.70
2019-01-26T15:30:22.607Z,97.70
2019-01-26T15:32:49.340Z,97.70
2019-01-26T15:35:16.009Z,98.00
2019-01-26T15:37:42.755Z,97.70
2019-01-26T15:40:12.451Z,98.00
2019-01-26T15:42:40.107Z,97.80
2019-01-26T15:45:16.327Z,97.70
2019-01-26T15:47:42.969Z,98.00
2019-01-26T15:50:13.090Z,98.00
2019-01-26T15:52:40.178Z,97.90
2019-01-26T15:55:13.452Z,97.80
2019-01-26T15:57:40.231Z,98.00
2019-01-26T16:00:13.356Z,98.00
2019-01-26T16:02:40.102Z,97.90
2019-01-26T16:05:07.732Z,98.10
2019-01-26T16:07:34.419Z,98.10
2019-01-26T16:10:01.074Z,98.10
2019-01-26T16:12:27.770Z,98.10
2019-01-26T16:14:54.486Z,97.90
2019-01-26T16:17:21.172Z,98.10
2019-01-26T16:19:47.821Z,98.20
2019-01-26T16:22:14.585Z,98.40
2019-01-26T16:24:41.258Z,98.40
2019-01-26T16:27:07.888Z,98.30
2019-01-26T16:29:34.564Z,98.30
2019-01-26T16:32:01.212Z,98.40
2019-01-26T16:34:27.875Z,98.30
2019-01-26T16:36:54.519Z,98.20
2019-01-26T16:39:21.188Z,98.20
2019-01-26T16:41:47.875Z,98.50
2019-01-26T16:44:14.529Z,98.40
2019-01-26T16:46:41.205Z,98.40
2019-01-26T16:49:07.827Z,98.70
2019-01-26T16:51:34.585Z,98.20
2019-01-26T16:54:01.203Z,98.30
2019-01-26T16:56:27.926Z,98.20
2019-01-26T16:58:54.626Z,98.30
2019-01-26T17:01:21.273Z,98.10
2019-01-26T17:03:47.997Z,98.20
2019-01-26T17:06:15.041Z,98.20
2019-01-26T17:08:41.666Z,98.20
2019-01-26T17:11:08.359Z,98.40
2019-01-26T17:13:35.022Z,98.20
2019-01-26T17:16:01.785Z,98.30
2019-01-26T17:18:28.449Z,98.20
2019-01-26T17:20:55.160Z,98.30
2019-01-26T17:23:21.872Z,98.40
2019-01-26T17:25:48.546Z,98.40
2019-01-26T17:28:17.878Z,98.30
2019-01-26T17:30:44.843Z,98.40
2019-01-26T17:33:11.620Z,98.30
2019-01-26T17:35:38.333Z,98.30
2019-01-26T17:38:05.599Z,98.40
2019-01-26T17:40:32.391Z,98.30
2019-01-26T17:42:59.117Z,98.30
2019-01-26T17:45:25.757Z,98.20
2019-01-26T17:47:52.885Z,98.20
2019-01-26T17:50:24.815Z,98.10
2019-01-26T17:52:51.446Z,97.90
2019-01-26T17:55:18.139Z,98.20
2019-01-26T17:57:44.873Z,97.90
2019-01-26T18:00:30.780Z,97.80
2019-01-26T18:02:57.428Z,98.00
2019-01-26T18:05:24.081Z,98.00
2019-01-26T18:07:50.712Z,98.20
2019-01-26T18:10:19.367Z,98.30
2019-01-26T18:12:46.025Z,98.40
2019-01-26T18:15:14.357Z,98.30
2019-01-26T18:17:41.220Z,98.20
2019-01-26T18:20:14.221Z,98.20
2019-01-26T18:22:40.893Z,98.30
2019-01-26T18:25:08.269Z,98.40
2019-01-26T18:27:35.085Z,98.10
2019-01-26T18:30:01.872Z,98.20
2019-01-26T18:32:28.499Z,98.20
2019-01-26T18:34:55.159Z,98.50
2019-01-26T18:37:21.933Z,98.40
2019-01-26T18:39:48.585Z,98.30
2019-01-26T18:42:15.240Z,98.50
2019-01-26T18:44:41.973Z,98.80
2019-01-26T18:47:08.634Z,98.70
2019-01-26T18:49:35.285Z,98.60
2019-01-26T18:52:01.925Z,98.60
2019-01-26T18:54:28.598Z,98.60
2019-01-26T18:56:55.244Z,98.40
2019-01-26T18:59:21.921Z,98.50
2019-01-26T19:01:48.561Z,98.50
2019-01-26T19:04:15.235Z,98.10
2019-01-26T19:06:41.872Z,98.40
2019-01-26T19:09:08.753Z,98.10
2019-01-26T19:11:35.372Z,98.10
2019-01-26T19:14:02.176Z,98.50
2019-01-26T19:16:28.821Z,98.40
2019-01-26T19:18:55.482Z,99.00
2019-01-26T19:21:22.128Z,98.40
2019-01-26T19:23:48.779Z,98.50
2019-01-26T19:26:15.525Z,98.40
2019-01-26T19:28:42.309Z,98.20
2019-01-26T19:31:09.001Z,98.60
2019-01-26T19:33:35.626Z,98.10
2019-01-26T19:36:02.302Z,98.10
2019-01-26T19:38:30.402Z,98.20
2019-01-26T19:40:57.057Z,98.00
2019-01-26T19:43:23.881Z,98.20
2019-01-26T19:45:50.644Z,98.50
2019-01-26T19:48:17.578Z,98.20
2019-01-26T19:50:44.253Z,98.00
2019-01-26T19:53:10.907Z,98.50
2019-01-26T19:55:37.650Z,98.00
2019-01-26T19:58:04.294Z,97.90
2019-01-26T20:00:30.961Z,98.00
2019-01-26T20:02:57.613Z,97.90
2019-01-26T20:05:24.436Z,97.90
2019-01-26T20:07:51.129Z,98.00
2019-01-26T20:10:18.061Z,98.10
2019-01-26T20:12:44.852Z,98.20
2019-01-26T20:15:20.436Z,98.10
2019-01-26T20:17:47.051Z,98.10
2019-01-26T20:20:16.520Z,98.00
2019-01-26T20:22:43.237Z,98.00
2019-01-26T20:25:10.057Z,98.00
2019-01-26T20:27:36.729Z,98.00
2019-01-26T20:30:09.977Z,98.30
2019-01-26T20:32:36.642Z,97.80
2019-01-26T20:35:05.061Z,97.90
2019-01-26T20:37:31.742Z,98.10
2019-01-26T20:39:58.442Z,98.00
2019-01-26T20:42:25.121Z,98.10
2019-01-26T20:44:51.805Z,98.00
2019-01-26T20:47:18.461Z,97.90
2019-01-26T20:49:45.105Z,97.90
2019-01-26T20:52:11.771Z,98.00
2019-01-26T20:54:38.412Z,97.90
2019-01-26T20:57:05.041Z,97.90
2019-01-26T20:59:31.721Z,97.90
2019-01-26T21:01:58.334Z,97.80
2019-01-26T21:04:25.001Z,98.20
2019-01-26T21:06:51.734Z,98.00
2019-01-26T21:09:18.388Z,97.80
2019-01-26T21:11:45.012Z,97.80
2019-01-26T21:14:11.724Z,97.80
2019-01-26T21:16:38.417Z,97.80
2019-01-26T21:19:05.037Z,97.60
2019-01-26T21:21:32.098Z,97.90
2019-01-26T21:23:58.757Z,97.90
2019-01-26T21:26:25.413Z,97.80
2019-01-26T21:28:52.054Z,98.10
2019-01-26T21:31:18.719Z,97.90
2019-01-26T21:33:45.361Z,97.90
2019-01-26T21:36:12.023Z,97.70
2019-01-26T21:38:39.813Z,97.70
2019-01-26T21:41:06.941Z,97.70
2019-01-26T21:43:33.526Z,97.50
2019-01-26T21:46:00.166Z,97.60
2019-01-26T21:48:26.835Z,97.90
2019-01-26T21:50:53.477Z,98.00
2019-01-26T21:53:20.138Z,97.80
2019-01-26T21:55:46.764Z,97.70
2019-01-26T21:58:13.438Z,97.60
2019-01-26T22:00:40.074Z,97.50
2019-01-26T22:03:06.686Z,97.60
2019-01-26T22:05:33.388Z,97.80
2019-01-26T22:08:00.215Z,97.60
2019-01-26T22:10:27.971Z,97.70
2019-01-26T22:12:54.704Z,97.50
2019-01-26T22:15:22.376Z,97.50
2019-01-26T22:17:49.157Z,97.50
2019-01-26T22:20:20.550Z,97.60
2019-01-26T22:22:47.877Z,97.50
2019-01-26T22:25:14.549Z,97.60
2019-01-26T22:27:41.170Z,97.60
2019-01-26T22:30:14.105Z,97.20
2019-01-26T22:32:40.769Z,97.40
2019-01-26T22:35:07.488Z,97.50
2019-01-26T22:37:34.135Z,97.50
2019-01-26T22:40:00.841Z,97.50
2019-01-26T22:42:27.488Z,97.50
2019-01-26T22:44:54.109Z,97.50
2019-01-26T22:47:20.769Z,97.50
2019-01-26T22:49:47.393Z,97.50
2019-01-26T22:52:14.063Z,97.70
2019-01-26T22:54:40.702Z,97.90
2019-01-26T22:57:07.365Z,97.90
2019-01-26T22:59:33.988Z,98.00
2019-01-26T23:02:00.629Z,98.10
2019-01-26T23:04:34.050Z,98.10
2019-01-26T23:07:13.233Z,97.80
2019-01-26T23:09:52.657Z,97.60
2019-01-26T23:12:28.686Z,97.60
2019-01-26T23:15:17.268Z,97.70
2019-01-26T23:18:04.216Z,97.70
2019-01-26T23:20:43.722Z,97.80
2019-01-26T23:23:22.809Z,97.60
2019-01-26T23:25:53.095Z,97.60
2019-01-26T23:28:32.501Z,97.60
2019-01-26T23:31:13.958Z,97.50
2019-01-26T23:33:40.660Z,97.30
2019-01-26T23:36:07.436Z,97.50
2019-01-26T23:38:34.068Z,97.30
2019-01-26T23:41:00.745Z,97.20
2019-01-26T23:43:27.417Z,97.20
2019-01-26T23:45:54.064Z,97.20
2019-01-26T23:48:20.733Z,97.30
2019-01-26T23:50:47.370Z,97.30
2019-01-26T23:53:14.151Z,97.30
2019-01-26T23:55:40.774Z,97.40
2019-01-26T23:58:07.443Z,97.50
